Leland, Washington
Current Conditions -  °F | °C
As of 3:56 PM on Tuesday 25 Nov 2014 (Local Time) from KNUW Reporting Station
Light Rain Light Rain  
Wind Chill: 49°   Ceiling: 700
Heat Index: 49°   Visibility: 2mi
Dew Point: 45°   Wind: 0mph
Humidity: 86%   Direction: NA
Pressure: 30.18"   Gusts: NA
Location:  48.026°N, 122.859°W
Report Text: KNUW 252356Z 00000KT 2SM -RA BR BKN007 BKN012 OVC025 09/07 A3018 RMK AO2 SFC VIS 4 SLP223 P0001 60007 T00940072 10106 20094 58013 $
Loading
Personal Weather Stations






























Interactive Weather Map New forecast layout! Learn more

10-Day Weather Forecast

Advertisements
Track Severe Weather on mobile